sensor_id;sensor_type;location;lat;lon;timestamp;P1;durP1;ratioP1;P2;durP2;ratioP2
72439;SDS011;60446;50.752;4.352;2023-06-22T00:01:20;8.50;;;2.60;;
72439;SDS011;60446;50.752;4.352;2023-06-22T00:03:51;6.65;;;2.55;;
72439;SDS011;60446;50.752;4.352;2023-06-22T00:06:19;9.13;;;2.60;;
72439;SDS011;60446;50.752;4.352;2023-06-22T00:08:46;7.28;;;2.17;;
72439;SDS011;60446;50.752;4.352;2023-06-22T00:11:13;8.20;;;2.17;;
72439;SDS011;60446;50.752;4.352;2023-06-22T00:13:41;6.63;;;2.53;;
72439;SDS011;60446;50.752;4.352;2023-06-22T00:16:08;7.50;;;2.30;;
72439;SDS011;60446;50.752;4.352;2023-06-22T00:18:35;7.63;;;2.72;;
72439;SDS011;60446;50.752;4.352;2023-06-22T00:21:02;8.20;;;2.75;;
72439;SDS011;60446;50.752;4.352;2023-06-22T00:23:30;7.43;;;2.50;;
72439;SDS011;60446;50.752;4.352;2023-06-22T00:26:00;8.60;;;2.27;;
72439;SDS011;60446;50.752;4.352;2023-06-22T00:28:28;6.60;;;3.10;;
72439;SDS011;60446;50.752;4.352;2023-06-22T00:30:55;8.40;;;2.85;;
72439;SDS011;60446;50.752;4.352;2023-06-22T00:33:24;8.60;;;2.63;;
72439;SDS011;60446;50.752;4.352;2023-06-22T00:35:51;6.90;;;2.20;;
72439;SDS011;60446;50.752;4.352;2023-06-22T00:38:22;5.93;;;2.30;;
72439;SDS011;60446;50.752;4.352;2023-06-22T00:40:49;11.27;;;3.05;;
72439;SDS011;60446;50.752;4.352;2023-06-22T00:43:16;7.25;;;2.78;;
72439;SDS011;60446;50.752;4.352;2023-06-22T00:45:43;7.35;;;2.45;;
72439;SDS011;60446;50.752;4.352;2023-06-22T00:48:10;7.20;;;2.60;;
72439;SDS011;60446;50.752;4.352;2023-06-22T00:50:39;6.80;;;2.30;;
72439;SDS011;60446;50.752;4.352;2023-06-22T00:53:08;7.13;;;2.55;;
72439;SDS011;60446;50.752;4.352;2023-06-22T00:55:38;6.32;;;2.20;;
72439;SDS011;60446;50.752;4.352;2023-06-22T00:58:10;5.72;;;1.92;;
72439;SDS011;60446;50.752;4.352;2023-06-22T01:00:40;6.75;;;2.40;;
72439;SDS011;60446;50.752;4.352;2023-06-22T01:03:08;7.03;;;2.10;;
72439;SDS011;60446;50.752;4.352;2023-06-22T01:05:37;6.63;;;2.53;;
72439;SDS011;60446;50.752;4.352;2023-06-22T01:10:55;8.75;;;2.92;;
72439;SDS011;60446;50.752;4.352;2023-06-22T01:13:54;8.38;;;2.75;;
72439;SDS011;60446;50.752;4.352;2023-06-22T01:16:34;7.73;;;3.03;;
72439;SDS011;60446;50.752;4.352;2023-06-22T01:19:29;7.55;;;2.70;;
72439;SDS011;60446;50.752;4.352;2023-06-22T01:22:05;8.85;;;2.90;;
72439;SDS011;60446;50.752;4.352;2023-06-22T01:24:48;6.78;;;2.42;;
72439;SDS011;60446;50.752;4.352;2023-06-22T01:28:09;8.90;;;2.78;;
72439;SDS011;60446;50.752;4.352;2023-06-22T01:31:02;7.43;;;2.60;;
72439;SDS011;60446;50.752;4.352;2023-06-22T01:33:33;6.22;;;2.78;;
72439;SDS011;60446;50.752;4.352;2023-06-22T01:36:04;6.57;;;2.95;;
72439;SDS011;60446;50.752;4.352;2023-06-22T01:38:32;7.35;;;2.88;;
72439;SDS011;60446;50.752;4.352;2023-06-22T01:41:02;6.78;;;2.90;;
72439;SDS011;60446;50.752;4.352;2023-06-22T01:43:30;7.80;;;2.87;;
72439;SDS011;60446;50.752;4.352;2023-06-22T01:45:59;7.40;;;2.63;;
72439;SDS011;60446;50.752;4.352;2023-06-22T01:48:28;9.35;;;2.67;;
72439;SDS011;60446;50.752;4.352;2023-06-22T01:51:00;8.75;;;3.20;;
72439;SDS011;60446;50.752;4.352;2023-06-22T01:53:29;7.15;;;2.50;;
72439;SDS011;60446;50.752;4.352;2023-06-22T01:55:56;7.67;;;2.80;;
72439;SDS011;60446;50.752;4.352;2023-06-22T01:58:28;6.60;;;2.50;;
72439;SDS011;60446;50.752;4.352;2023-06-22T02:01:03;9.32;;;2.85;;
72439;SDS011;60446;50.752;4.352;2023-06-22T02:03:44;7.72;;;2.83;;
72439;SDS011;60446;50.752;4.352;2023-06-22T02:06:21;7.15;;;2.33;;
72439;SDS011;60446;50.752;4.352;2023-06-22T02:08:59;9.43;;;2.97;;
72439;SDS011;60446;50.752;4.352;2023-06-22T02:11:30;7.32;;;2.55;;
72439;SDS011;60446;50.752;4.352;2023-06-22T02:13:59;7.40;;;2.72;;
72439;SDS011;60446;50.752;4.352;2023-06-22T02:16:27;7.22;;;2.50;;
72439;SDS011;60446;50.752;4.352;2023-06-22T02:18:57;7.90;;;2.40;;
72439;SDS011;60446;50.752;4.352;2023-06-22T02:21:34;7.07;;;2.07;;
72439;SDS011;60446;50.752;4.352;2023-06-22T02:24:01;6.10;;;2.33;;
72439;SDS011;60446;50.752;4.352;2023-06-22T02:26:29;6.55;;;2.65;;
72439;SDS011;60446;50.752;4.352;2023-06-22T02:28:57;8.13;;;2.80;;
72439;SDS011;60446;50.752;4.352;2023-06-22T02:31:24;7.28;;;2.45;;
72439;SDS011;60446;50.752;4.352;2023-06-22T02:33:57;8.43;;;3.03;;
72439;SDS011;60446;50.752;4.352;2023-06-22T02:36:25;7.70;;;2.47;;
72439;SDS011;60446;50.752;4.352;2023-06-22T02:38:59;8.98;;;3.22;;
72439;SDS011;60446;50.752;4.352;2023-06-22T02:41:29;7.28;;;2.60;;
72439;SDS011;60446;50.752;4.352;2023-06-22T02:43:56;6.72;;;2.60;;
72439;SDS011;60446;50.752;4.352;2023-06-22T02:46:24;6.23;;;2.60;;
72439;SDS011;60446;50.752;4.352;2023-06-22T02:48:52;9.55;;;3.10;;
72439;SDS011;60446;50.752;4.352;2023-06-22T02:51:19;6.68;;;2.70;;
72439;SDS011;60446;50.752;4.352;2023-06-22T02:53:47;6.93;;;2.50;;
72439;SDS011;60446;50.752;4.352;2023-06-22T02:56:15;8.23;;;2.75;;
72439;SDS011;60446;50.752;4.352;2023-06-22T02:58:46;7.87;;;2.67;;
72439;SDS011;60446;50.752;4.352;2023-06-22T03:01:14;7.60;;;2.60;;
72439;SDS011;60446;50.752;4.352;2023-06-22T03:03:45;7.63;;;2.85;;
72439;SDS011;60446;50.752;4.352;2023-06-22T03:06:13;7.82;;;3.00;;
72439;SDS011;60446;50.752;4.352;2023-06-22T03:08:41;7.63;;;3.15;;
72439;SDS011;60446;50.752;4.352;2023-06-22T03:11:09;8.03;;;3.03;;
72439;SDS011;60446;50.752;4.352;2023-06-22T03:13:36;9.35;;;3.10;;
72439;SDS011;60446;50.752;4.352;2023-06-22T03:16:05;10.02;;;3.50;;
72439;SDS011;60446;50.752;4.352;2023-06-22T03:18:33;8.05;;;3.20;;
72439;SDS011;60446;50.752;4.352;2023-06-22T03:21:00;8.73;;;3.47;;
72439;SDS011;60446;50.752;4.352;2023-06-22T03:23:30;7.77;;;3.07;;
72439;SDS011;60446;50.752;4.352;2023-06-22T03:25:57;8.90;;;3.00;;
72439;SDS011;60446;50.752;4.352;2023-06-22T03:28:24;9.25;;;3.65;;
72439;SDS011;60446;50.752;4.352;2023-06-22T03:30:51;8.77;;;2.95;;
72439;SDS011;60446;50.752;4.352;2023-06-22T03:33:18;8.07;;;2.95;;
72439;SDS011;60446;50.752;4.352;2023-06-22T03:35:46;9.37;;;2.77;;
72439;SDS011;60446;50.752;4.352;2023-06-22T03:38:13;8.43;;;3.25;;
72439;SDS011;60446;50.752;4.352;2023-06-22T03:40:40;8.00;;;3.13;;
72439;SDS011;60446;50.752;4.352;2023-06-22T03:43:07;9.23;;;2.92;;
72439;SDS011;60446;50.752;4.352;2023-06-22T03:45:35;8.27;;;3.33;;
72439;SDS011;60446;50.752;4.352;2023-06-22T03:48:02;7.27;;;2.53;;
72439;SDS011;60446;50.752;4.352;2023-06-22T03:50:31;9.45;;;3.03;;
72439;SDS011;60446;50.752;4.352;2023-06-22T03:52:58;8.25;;;2.40;;
72439;SDS011;60446;50.752;4.352;2023-06-22T03:55:25;7.47;;;2.30;;
72439;SDS011;60446;50.752;4.352;2023-06-22T03:57:53;7.32;;;2.47;;
72439;SDS011;60446;50.752;4.352;2023-06-22T04:00:23;7.57;;;2.60;;
72439;SDS011;60446;50.752;4.352;2023-06-22T04:02:50;7.75;;;2.70;;
72439;SDS011;60446;50.752;4.352;2023-06-22T04:05:17;8.30;;;2.97;;
72439;SDS011;60446;50.752;4.352;2023-06-22T04:07:45;7.72;;;2.42;;
72439;SDS011;60446;50.752;4.352;2023-06-22T04:10:12;8.20;;;3.15;;
72439;SDS011;60446;50.752;4.352;2023-06-22T04:12:43;7.47;;;2.63;;
72439;SDS011;60446;50.752;4.352;2023-06-22T04:15:11;11.80;;;2.95;;
72439;SDS011;60446;50.752;4.352;2023-06-22T04:17:38;9.82;;;3.10;;
72439;SDS011;60446;50.752;4.352;2023-06-22T04:20:06;7.78;;;3.13;;
72439;SDS011;60446;50.752;4.352;2023-06-22T04:22:34;7.75;;;3.00;;
72439;SDS011;60446;50.752;4.352;2023-06-22T04:25:01;8.07;;;3.07;;
72439;SDS011;60446;50.752;4.352;2023-06-22T04:27:28;9.20;;;3.47;;
72439;SDS011;60446;50.752;4.352;2023-06-22T04:29:55;9.98;;;3.63;;
72439;SDS011;60446;50.752;4.352;2023-06-22T04:32:22;9.13;;;3.35;;
72439;SDS011;60446;50.752;4.352;2023-06-22T04:34:49;8.95;;;3.40;;
72439;SDS011;60446;50.752;4.352;2023-06-22T04:37:17;9.33;;;3.73;;
72439;SDS011;60446;50.752;4.352;2023-06-22T04:39:44;10.52;;;3.90;;
72439;SDS011;60446;50.752;4.352;2023-06-22T04:42:12;9.90;;;4.07;;
72439;SDS011;60446;50.752;4.352;2023-06-22T04:44:39;11.30;;;3.95;;
72439;SDS011;60446;50.752;4.352;2023-06-22T04:47:08;10.18;;;4.13;;
72439;SDS011;60446;50.752;4.352;2023-06-22T04:49:35;10.43;;;4.30;;
72439;SDS011;60446;50.752;4.352;2023-06-22T04:52:04;11.50;;;4.53;;
72439;SDS011;60446;50.752;4.352;2023-06-22T04:54:37;11.43;;;4.50;;
72439;SDS011;60446;50.752;4.352;2023-06-22T04:57:06;12.32;;;5.07;;
72439;SDS011;60446;50.752;4.352;2023-06-22T04:59:37;12.70;;;4.85;;
72439;SDS011;60446;50.752;4.352;2023-06-22T05:02:08;13.63;;;5.33;;
72439;SDS011;60446;50.752;4.352;2023-06-22T05:04:36;13.95;;;6.30;;
72439;SDS011;60446;50.752;4.352;2023-06-22T05:07:05;17.00;;;6.55;;
72439;SDS011;60446;50.752;4.352;2023-06-22T05:09:33;13.70;;;6.90;;
72439;SDS011;60446;50.752;4.352;2023-06-22T05:12:00;15.77;;;6.60;;
72439;SDS011;60446;50.752;4.352;2023-06-22T05:14:29;16.33;;;7.83;;
72439;SDS011;60446;50.752;4.352;2023-06-22T05:16:56;17.33;;;7.38;;
72439;SDS011;60446;50.752;4.352;2023-06-22T05:19:30;16.77;;;7.75;;
72439;SDS011;60446;50.752;4.352;2023-06-22T05:22:00;20.80;;;7.55;;
72439;SDS011;60446;50.752;4.352;2023-06-22T05:24:27;17.17;;;7.50;;
72439;SDS011;60446;50.752;4.352;2023-06-22T05:26:54;16.20;;;7.37;;
72439;SDS011;60446;50.752;4.352;2023-06-22T05:29:22;17.20;;;7.55;;
72439;SDS011;60446;50.752;4.352;2023-06-22T05:31:49;19.20;;;7.97;;
72439;SDS011;60446;50.752;4.352;2023-06-22T05:34:16;16.20;;;7.88;;
72439;SDS011;60446;50.752;4.352;2023-06-22T05:36:43;17.95;;;8.15;;
72439;SDS011;60446;50.752;4.352;2023-06-22T05:39:11;19.87;;;8.60;;
72439;SDS011;60446;50.752;4.352;2023-06-22T05:41:40;17.08;;;7.97;;
72439;SDS011;60446;50.752;4.352;2023-06-22T05:44:07;20.35;;;8.63;;
72439;SDS011;60446;50.752;4.352;2023-06-22T05:46:35;17.33;;;7.65;;
72439;SDS011;60446;50.752;4.352;2023-06-22T05:49:02;20.20;;;8.95;;
72439;SDS011;60446;50.752;4.352;2023-06-22T05:51:29;18.10;;;8.70;;
72439;SDS011;60446;50.752;4.352;2023-06-22T05:53:56;20.13;;;9.70;;
72439;SDS011;60446;50.752;4.352;2023-06-22T05:56:24;22.70;;;9.57;;
72439;SDS011;60446;50.752;4.352;2023-06-22T05:58:51;23.23;;;11.85;;
72439;SDS011;60446;50.752;4.352;2023-06-22T06:01:18;20.92;;;10.73;;
72439;SDS011;60446;50.752;4.352;2023-06-22T06:03:45;24.27;;;11.23;;
72439;SDS011;60446;50.752;4.352;2023-06-22T06:06:12;22.05;;;10.68;;
72439;SDS011;60446;50.752;4.352;2023-06-22T06:08:40;22.63;;;10.95;;
72439;SDS011;60446;50.752;4.352;2023-06-22T06:11:08;24.23;;;10.70;;
72439;SDS011;60446;50.752;4.352;2023-06-22T06:13:35;25.50;;;12.15;;
72439;SDS011;60446;50.752;4.352;2023-06-22T06:16:02;22.50;;;11.87;;
72439;SDS011;60446;50.752;4.352;2023-06-22T06:18:29;25.00;;;11.20;;
72439;SDS011;60446;50.752;4.352;2023-06-22T06:20:57;23.55;;;11.40;;
72439;SDS011;60446;50.752;4.352;2023-06-22T06:23:24;21.15;;;9.75;;
72439;SDS011;60446;50.752;4.352;2023-06-22T06:25:51;25.58;;;11.40;;
72439;SDS011;60446;50.752;4.352;2023-06-22T06:28:18;21.13;;;10.33;;
72439;SDS011;60446;50.752;4.352;2023-06-22T06:30:45;21.70;;;9.88;;
72439;SDS011;60446;50.752;4.352;2023-06-22T06:33:13;23.20;;;11.10;;
72439;SDS011;60446;50.752;4.352;2023-06-22T06:35:40;21.15;;;10.13;;
72439;SDS011;60446;50.752;4.352;2023-06-22T06:38:08;19.88;;;9.50;;
72439;SDS011;60446;50.752;4.352;2023-06-22T06:40:35;23.80;;;10.43;;
72439;SDS011;60446;50.752;4.352;2023-06-22T06:43:02;21.63;;;9.77;;
72439;SDS011;60446;50.752;4.352;2023-06-22T06:45:29;21.17;;;10.77;;
72439;SDS011;60446;50.752;4.352;2023-06-22T06:47:59;20.88;;;9.52;;
72439;SDS011;60446;50.752;4.352;2023-06-22T06:50:27;19.38;;;8.95;;
72439;SDS011;60446;50.752;4.352;2023-06-22T06:52:55;22.67;;;9.90;;
72439;SDS011;60446;50.752;4.352;2023-06-22T06:55:25;22.75;;;10.48;;
72439;SDS011;60446;50.752;4.352;2023-06-22T06:57:52;25.27;;;11.20;;
72439;SDS011;60446;50.752;4.352;2023-06-22T07:00:20;24.63;;;10.38;;
72439;SDS011;60446;50.752;4.352;2023-06-22T07:02:47;19.75;;;10.00;;
72439;SDS011;60446;50.752;4.352;2023-06-22T07:05:15;20.37;;;10.50;;
72439;SDS011;60446;50.752;4.352;2023-06-22T07:07:42;22.25;;;9.52;;
72439;SDS011;60446;50.752;4.352;2023-06-22T07:10:10;22.10;;;10.50;;
72439;SDS011;60446;50.752;4.352;2023-06-22T07:12:38;20.02;;;9.43;;
72439;SDS011;60446;50.752;4.352;2023-06-22T07:15:06;23.08;;;10.40;;
72439;SDS011;60446;50.752;4.352;2023-06-22T07:17:36;22.80;;;10.63;;
72439;SDS011;60446;50.752;4.352;2023-06-22T07:20:03;21.40;;;10.73;;
72439;SDS011;60446;50.752;4.352;2023-06-22T07:22:39;22.38;;;10.95;;
72439;SDS011;60446;50.752;4.352;2023-06-22T07:25:09;20.58;;;10.27;;
72439;SDS011;60446;50.752;4.352;2023-06-22T07:27:56;24.15;;;9.95;;
72439;SDS011;60446;50.752;4.352;2023-06-22T07:30:28;23.87;;;10.53;;
72439;SDS011;60446;50.752;4.352;2023-06-22T07:32:57;24.98;;;10.93;;
72439;SDS011;60446;50.752;4.352;2023-06-22T07:35:25;21.58;;;10.70;;
72439;SDS011;60446;50.752;4.352;2023-06-22T07:37:52;23.63;;;11.02;;
72439;SDS011;60446;50.752;4.352;2023-06-22T07:40:20;21.73;;;9.90;;
72439;SDS011;60446;50.752;4.352;2023-06-22T07:42:47;27.90;;;10.90;;
72439;SDS011;60446;50.752;4.352;2023-06-22T07:45:14;20.90;;;10.15;;
72439;SDS011;60446;50.752;4.352;2023-06-22T07:47:41;19.40;;;9.98;;
72439;SDS011;60446;50.752;4.352;2023-06-22T07:50:09;20.35;;;9.10;;
72439;SDS011;60446;50.752;4.352;2023-06-22T07:52:36;19.85;;;10.05;;
72439;SDS011;60446;50.752;4.352;2023-06-22T07:55:04;22.43;;;9.30;;
72439;SDS011;60446;50.752;4.352;2023-06-22T07:57:31;19.65;;;8.75;;
72439;SDS011;60446;50.752;4.352;2023-06-22T08:00:00;18.40;;;9.25;;
72439;SDS011;60446;50.752;4.352;2023-06-22T08:02:39;19.60;;;10.02;;
72439;SDS011;60446;50.752;4.352;2023-06-22T08:05:08;18.90;;;9.50;;
72439;SDS011;60446;50.752;4.352;2023-06-22T08:07:41;20.80;;;10.03;;
72439;SDS011;60446;50.752;4.352;2023-06-22T08:10:12;20.48;;;9.98;;
72439;SDS011;60446;50.752;4.352;2023-06-22T08:12:40;17.20;;;9.27;;
72439;SDS011;60446;50.752;4.352;2023-06-22T08:15:08;19.73;;;9.57;;
72439;SDS011;60446;50.752;4.352;2023-06-22T08:17:37;18.55;;;9.40;;
72439;SDS011;60446;50.752;4.352;2023-06-22T08:20:06;21.93;;;9.27;;
72439;SDS011;60446;50.752;4.352;2023-06-22T08:22:40;20.45;;;9.60;;
72439;SDS011;60446;50.752;4.352;2023-06-22T08:25:09;20.33;;;10.02;;
72439;SDS011;60446;50.752;4.352;2023-06-22T08:27:37;19.50;;;9.35;;
72439;SDS011;60446;50.752;4.352;2023-06-22T08:30:05;20.50;;;9.88;;
72439;SDS011;60446;50.752;4.352;2023-06-22T08:32:34;21.60;;;9.70;;
72439;SDS011;60446;50.752;4.352;2023-06-22T08:35:01;19.70;;;10.02;;
72439;SDS011;60446;50.752;4.352;2023-06-22T08:37:28;18.83;;;9.75;;
72439;SDS011;60446;50.752;4.352;2023-06-22T08:40:03;19.63;;;9.35;;
72439;SDS011;60446;50.752;4.352;2023-06-22T08:42:33;22.00;;;9.52;;
72439;SDS011;60446;50.752;4.352;2023-06-22T08:45:01;18.17;;;9.20;;
72439;SDS011;60446;50.752;4.352;2023-06-22T08:47:28;18.77;;;10.38;;
72439;SDS011;60446;50.752;4.352;2023-06-22T08:49:55;18.95;;;9.52;;
72439;SDS011;60446;50.752;4.352;2023-06-22T08:52:22;20.38;;;9.40;;
72439;SDS011;60446;50.752;4.352;2023-06-22T08:54:50;19.08;;;9.55;;
72439;SDS011;60446;50.752;4.352;2023-06-22T08:57:17;20.83;;;9.43;;
72439;SDS011;60446;50.752;4.352;2023-06-22T08:59:45;17.67;;;8.57;;
72439;SDS011;60446;50.752;4.352;2023-06-22T09:02:12;20.27;;;10.48;;
72439;SDS011;60446;50.752;4.352;2023-06-22T09:04:39;19.45;;;9.40;;
72439;SDS011;60446;50.752;4.352;2023-06-22T09:07:06;20.65;;;9.50;;
72439;SDS011;60446;50.752;4.352;2023-06-22T09:09:34;18.77;;;9.53;;
72439;SDS011;60446;50.752;4.352;2023-06-22T09:12:01;20.38;;;9.95;;
72439;SDS011;60446;50.752;4.352;2023-06-22T09:14:28;19.42;;;10.63;;
72439;SDS011;60446;50.752;4.352;2023-06-22T09:16:55;18.05;;;9.40;;
72439;SDS011;60446;50.752;4.352;2023-06-22T09:19:22;18.45;;;9.27;;
72439;SDS011;60446;50.752;4.352;2023-06-22T09:21:50;22.00;;;10.07;;
72439;SDS011;60446;50.752;4.352;2023-06-22T09:24:17;21.25;;;9.05;;
72439;SDS011;60446;50.752;4.352;2023-06-22T09:26:44;21.77;;;10.90;;
72439;SDS011;60446;50.752;4.352;2023-06-22T09:29:13;23.35;;;10.07;;
72439;SDS011;60446;50.752;4.352;2023-06-22T09:31:40;52.60;;;12.35;;
72439;SDS011;60446;50.752;4.352;2023-06-22T09:34:07;49.43;;;13.33;;
72439;SDS011;60446;50.752;4.352;2023-06-22T09:36:34;45.47;;;11.88;;
72439;SDS011;60446;50.752;4.352;2023-06-22T09:39:01;24.48;;;10.73;;
72439;SDS011;60446;50.752;4.352;2023-06-22T09:41:32;23.50;;;10.77;;
72439;SDS011;60446;50.752;4.352;2023-06-22T09:43:59;21.27;;;10.30;;
72439;SDS011;60446;50.752;4.352;2023-06-22T09:46:27;24.83;;;10.23;;
72439;SDS011;60446;50.752;4.352;2023-06-22T09:48:55;22.55;;;10.77;;
72439;SDS011;60446;50.752;4.352;2023-06-22T09:51:22;20.77;;;9.88;;
72439;SDS011;60446;50.752;4.352;2023-06-22T09:53:50;22.00;;;10.65;;
72439;SDS011;60446;50.752;4.352;2023-06-22T09:56:20;21.65;;;10.73;;
72439;SDS011;60446;50.752;4.352;2023-06-22T09:58:47;21.80;;;10.87;;
72439;SDS011;60446;50.752;4.352;2023-06-22T10:01:18;20.90;;;10.45;;
72439;SDS011;60446;50.752;4.352;2023-06-22T10:03:47;18.13;;;9.60;;
72439;SDS011;60446;50.752;4.352;2023-06-22T10:06:14;20.83;;;10.70;;
72439;SDS011;60446;50.752;4.352;2023-06-22T10:08:41;22.38;;;11.20;;
72439;SDS011;60446;50.752;4.352;2023-06-22T10:11:08;18.30;;;8.80;;
72439;SDS011;60446;50.752;4.352;2023-06-22T10:13:35;17.58;;;9.20;;
72439;SDS011;60446;50.752;4.352;2023-06-22T10:16:03;19.50;;;9.38;;
72439;SDS011;60446;50.752;4.352;2023-06-22T10:18:30;17.25;;;9.57;;
72439;SDS011;60446;50.752;4.352;2023-06-22T10:20:57;20.25;;;10.32;;
72439;SDS011;60446;50.752;4.352;2023-06-22T10:23:24;20.53;;;9.80;;
72439;SDS011;60446;50.752;4.352;2023-06-22T10:25:51;20.42;;;9.95;;
72439;SDS011;60446;50.752;4.352;2023-06-22T10:28:19;20.05;;;10.48;;
72439;SDS011;60446;50.752;4.352;2023-06-22T10:30:46;20.98;;;10.93;;
72439;SDS011;60446;50.752;4.352;2023-06-22T10:33:13;24.25;;;11.30;;
72439;SDS011;60446;50.752;4.352;2023-06-22T10:35:40;26.90;;;11.23;;
72439;SDS011;60446;50.752;4.352;2023-06-22T10:38:07;22.90;;;12.00;;
72439;SDS011;60446;50.752;4.352;2023-06-22T10:40:34;22.95;;;11.45;;
72439;SDS011;60446;50.752;4.352;2023-06-22T10:43:02;25.42;;;12.82;;
72439;SDS011;60446;50.752;4.352;2023-06-22T10:45:29;24.92;;;12.35;;
72439;SDS011;60446;50.752;4.352;2023-06-22T10:47:57;24.77;;;12.50;;
72439;SDS011;60446;50.752;4.352;2023-06-22T10:50:24;25.48;;;12.27;;
72439;SDS011;60446;50.752;4.352;2023-06-22T10:52:53;25.45;;;12.77;;
72439;SDS011;60446;50.752;4.352;2023-06-22T10:55:24;28.20;;;12.05;;
72439;SDS011;60446;50.752;4.352;2023-06-22T10:57:52;24.30;;;12.02;;
72439;SDS011;60446;50.752;4.352;2023-06-22T11:00:19;21.83;;;11.00;;
72439;SDS011;60446;50.752;4.352;2023-06-22T11:02:47;23.70;;;12.30;;
72439;SDS011;60446;50.752;4.352;2023-06-22T11:05:15;25.10;;;11.82;;
72439;SDS011;60446;50.752;4.352;2023-06-22T11:07:42;29.75;;;13.13;;
72439;SDS011;60446;50.752;4.352;2023-06-22T11:10:12;31.17;;;13.45;;
72439;SDS011;60446;50.752;4.352;2023-06-22T11:12:39;26.13;;;12.20;;
72439;SDS011;60446;50.752;4.352;2023-06-22T11:15:07;28.42;;;12.80;;
72439;SDS011;60446;50.752;4.352;2023-06-22T11:17:35;24.63;;;12.30;;
72439;SDS011;60446;50.752;4.352;2023-06-22T11:20:03;28.88;;;13.23;;
72439;SDS011;60446;50.752;4.352;2023-06-22T11:22:40;25.98;;;14.10;;
72439;SDS011;60446;50.752;4.352;2023-06-22T11:25:07;27.90;;;13.33;;
72439;SDS011;60446;50.752;4.352;2023-06-22T11:27:35;27.45;;;13.30;;
72439;SDS011;60446;50.752;4.352;2023-06-22T11:30:03;27.52;;;14.43;;
72439;SDS011;60446;50.752;4.352;2023-06-22T11:32:30;28.90;;;14.07;;
72439;SDS011;60446;50.752;4.352;2023-06-22T11:34:58;30.17;;;14.27;;
72439;SDS011;60446;50.752;4.352;2023-06-22T11:37:25;26.97;;;13.87;;
72439;SDS011;60446;50.752;4.352;2023-06-22T11:39:52;29.35;;;14.57;;
72439;SDS011;60446;50.752;4.352;2023-06-22T11:42:32;28.95;;;14.68;;
72439;SDS011;60446;50.752;4.352;2023-06-22T11:45:00;30.63;;;15.00;;
72439;SDS011;60446;50.752;4.352;2023-06-22T11:47:29;31.70;;;15.48;;
72439;SDS011;60446;50.752;4.352;2023-06-22T11:49:56;28.90;;;14.10;;
72439;SDS011;60446;50.752;4.352;2023-06-22T11:52:23;31.17;;;14.98;;
72439;SDS011;60446;50.752;4.352;2023-06-22T11:54:50;33.10;;;15.73;;
72439;SDS011;60446;50.752;4.352;2023-06-22T11:57:17;29.90;;;15.02;;
72439;SDS011;60446;50.752;4.352;2023-06-22T11:59:44;33.50;;;16.35;;
72439;SDS011;60446;50.752;4.352;2023-06-22T12:02:11;32.23;;;15.73;;
72439;SDS011;60446;50.752;4.352;2023-06-22T12:04:39;30.27;;;14.80;;
72439;SDS011;60446;50.752;4.352;2023-06-22T12:07:06;29.38;;;15.50;;
72439;SDS011;60446;50.752;4.352;2023-06-22T12:09:33;35.58;;;16.67;;
72439;SDS011;60446;50.752;4.352;2023-06-22T12:12:00;33.03;;;15.27;;
72439;SDS011;60446;50.752;4.352;2023-06-22T12:14:28;38.47;;;16.37;;
72439;SDS011;60446;50.752;4.352;2023-06-22T12:16:57;32.33;;;16.35;;
72439;SDS011;60446;50.752;4.352;2023-06-22T12:19:24;37.25;;;16.10;;
72439;SDS011;60446;50.752;4.352;2023-06-22T12:21:51;36.38;;;15.43;;
72439;SDS011;60446;50.752;4.352;2023-06-22T12:24:18;32.00;;;16.38;;
72439;SDS011;60446;50.752;4.352;2023-06-22T12:26:45;30.10;;;15.50;;
72439;SDS011;60446;50.752;4.352;2023-06-22T12:29:12;32.10;;;15.93;;
72439;SDS011;60446;50.752;4.352;2023-06-22T12:31:39;31.38;;;15.13;;
72439;SDS011;60446;50.752;4.352;2023-06-22T12:34:08;31.48;;;14.60;;
72439;SDS011;60446;50.752;4.352;2023-06-22T12:36:35;35.92;;;16.63;;
72439;SDS011;60446;50.752;4.352;2023-06-22T12:39:02;37.43;;;16.97;;
72439;SDS011;60446;50.752;4.352;2023-06-22T12:41:29;35.78;;;15.73;;
72439;SDS011;60446;50.752;4.352;2023-06-22T12:43:56;35.03;;;16.73;;
72439;SDS011;60446;50.752;4.352;2023-06-22T12:46:24;32.88;;;15.55;;
72439;SDS011;60446;50.752;4.352;2023-06-22T12:48:51;36.85;;;17.50;;
72439;SDS011;60446;50.752;4.352;2023-06-22T12:51:21;39.37;;;17.30;;
72439;SDS011;60446;50.752;4.352;2023-06-22T12:53:49;39.22;;;17.55;;
72439;SDS011;60446;50.752;4.352;2023-06-22T12:56:16;40.80;;;18.60;;
72439;SDS011;60446;50.752;4.352;2023-06-22T12:58:43;38.70;;;17.77;;
72439;SDS011;60446;50.752;4.352;2023-06-22T13:01:11;37.55;;;17.60;;
72439;SDS011;60446;50.752;4.352;2023-06-22T13:03:38;41.60;;;17.73;;
72439;SDS011;60446;50.752;4.352;2023-06-22T13:06:05;42.50;;;18.70;;
72439;SDS011;60446;50.752;4.352;2023-06-22T13:08:32;42.75;;;17.92;;
72439;SDS011;60446;50.752;4.352;2023-06-22T13:11:19;40.10;;;18.90;;
72439;SDS011;60446;50.752;4.352;2023-06-22T13:13:47;45.53;;;21.02;;
72439;SDS011;60446;50.752;4.352;2023-06-22T13:16:14;46.97;;;19.27;;
72439;SDS011;60446;50.752;4.352;2023-06-22T13:18:41;43.83;;;20.00;;
72439;SDS011;60446;50.752;4.352;2023-06-22T13:21:08;43.15;;;20.65;;
72439;SDS011;60446;50.752;4.352;2023-06-22T13:23:35;43.95;;;20.23;;
72439;SDS011;60446;50.752;4.352;2023-06-22T13:26:02;46.13;;;20.88;;
72439;SDS011;60446;50.752;4.352;2023-06-22T13:28:30;43.27;;;20.73;;
72439;SDS011;60446;50.752;4.352;2023-06-22T13:30:57;45.03;;;20.73;;
72439;SDS011;60446;50.752;4.352;2023-06-22T13:33:24;49.20;;;21.10;;
72439;SDS011;60446;50.752;4.352;2023-06-22T13:35:51;53.13;;;21.73;;
72439;SDS011;60446;50.752;4.352;2023-06-22T13:38:18;47.60;;;20.58;;
72439;SDS011;60446;50.752;4.352;2023-06-22T13:40:46;50.73;;;21.87;;
72439;SDS011;60446;50.752;4.352;2023-06-22T13:43:13;49.97;;;21.75;;
72439;SDS011;60446;50.752;4.352;2023-06-22T13:45:42;49.85;;;22.45;;
72439;SDS011;60446;50.752;4.352;2023-06-22T13:48:09;47.53;;;21.52;;
72439;SDS011;60446;50.752;4.352;2023-06-22T13:50:37;49.65;;;21.65;;
72439;SDS011;60446;50.752;4.352;2023-06-22T13:53:04;49.83;;;22.67;;
72439;SDS011;60446;50.752;4.352;2023-06-22T13:55:31;54.70;;;22.27;;
72439;SDS011;60446;50.752;4.352;2023-06-22T13:57:58;49.00;;;23.23;;
72439;SDS011;60446;50.752;4.352;2023-06-22T14:00:25;46.90;;;22.38;;
72439;SDS011;60446;50.752;4.352;2023-06-22T14:02:54;50.28;;;22.30;;
72439;SDS011;60446;50.752;4.352;2023-06-22T14:05:22;46.13;;;20.67;;
72439;SDS011;60446;50.752;4.352;2023-06-22T14:07:49;48.22;;;21.55;;
72439;SDS011;60446;50.752;4.352;2023-06-22T14:10:16;47.67;;;21.27;;
72439;SDS011;60446;50.752;4.352;2023-06-22T14:12:43;43.78;;;20.15;;
72439;SDS011;60446;50.752;4.352;2023-06-22T14:15:11;44.00;;;19.48;;
72439;SDS011;60446;50.752;4.352;2023-06-22T14:17:38;42.90;;;18.80;;
72439;SDS011;60446;50.752;4.352;2023-06-22T14:20:05;45.38;;;19.95;;
72439;SDS011;60446;50.752;4.352;2023-06-22T14:22:34;39.70;;;18.63;;
72439;SDS011;60446;50.752;4.352;2023-06-22T14:25:02;40.13;;;18.35;;
72439;SDS011;60446;50.752;4.352;2023-06-22T14:27:31;40.53;;;17.52;;
72439;SDS011;60446;50.752;4.352;2023-06-22T14:29:58;40.07;;;18.87;;
72439;SDS011;60446;50.752;4.352;2023-06-22T14:32:27;41.50;;;20.13;;
72439;SDS011;60446;50.752;4.352;2023-06-22T14:34:57;42.47;;;19.33;;
72439;SDS011;60446;50.752;4.352;2023-06-22T14:37:25;43.17;;;18.23;;
72439;SDS011;60446;50.752;4.352;2023-06-22T14:39:52;46.03;;;19.75;;
72439;SDS011;60446;50.752;4.352;2023-06-22T14:42:19;40.67;;;18.67;;
72439;SDS011;60446;50.752;4.352;2023-06-22T14:44:47;43.05;;;19.70;;